Bw Mia — 2HNX2 — position and weather

sailwx.info

Track history (hours):
 
Tides and Currents Weather Stations Pressure Air Temp Water Temp Dewpoint Dewpoint Depression Visibility Wind Speed Wind Dir Waves Ship Positions

Bw Mia

Last reported at 2018-Jun-20 16:13 UTC. Time now 2018-Jun-23 06:17 UTC.
Position N 01°22' E 104°25'.

Length 144 m; draft 9.7 m.

Type: Tanker. MMSI: 235105196.

Date/timePositionNaut miles runAvg speedWind from/ knotsBaromVisibWave heightAir tempDewpointWater temp
2018-Jun-20 16:13N 01°22' E 104°25'412.0
2018-Jun-20 15:55N 01°19' E 104°22'711.6
2018-Jun-20 15:19N 01°17' E 104°16'512.0
2018-Jun-20 14:56N 01°16' E 104°11'612.1
2018-Jun-20 14:28N 01°15' E 104°06'511.7
2018-Jun-20 14:00N 01°14' E 104°00'611.0
2018-Jun-20 13:30N 01°13' E 103°55'5 9.8
2018-Jun-20 13:00N 01°11' E 103°51'5 9.9
2018-Jun-20 12:30N 01°08' E 103°46'5 9.4
2018-Jun-20 11:58N 01°05' E 103°43'510.2
2018-Jun-20 11:30N 01°03' E 103°39'611.2
2018-Jun-20 10:59N 01°06' E 103°34'4 7.8
2018-Jun-20 10:30N 01°10' E 103°34'5 9.9
2018-Jun-20 10:01N 01°11' E 103°39'3 5.3
2018-Jun-20 09:30N 01°11' E 103°41'0 0.0
2018-Jun-20 08:59N 01°11' E 103°41'0 0.0
2018-Jun-20 08:30N 01°11' E 103°41'0 0.0
2018-Jun-20 07:56N 01°11' E 103°41'0 0.1
2018-Jun-20 07:30N 01°11' E 103°41'0 0.0
2018-Jun-20 06:59N 01°11' E 103°41'0 0.0
2018-Jun-20 06:30N 01°11' E 103°41'0 0.0
2018-Jun-20 05:57N 01°11' E 103°41'0 0.0
2018-Jun-20 05:27N 01°11' E 103°41'0 0.0
2018-Jun-20 05:00N 01°11' E 103°41'0 0.0
2018-Jun-20 04:30N 01°11' E 103°41'0 0.0
2018-Jun-20 03:57N 01°11' E 103°41'0 0.0
2018-Jun-20 03:30N 01°11' E 103°41'0 0.0
2018-Jun-20 02:59N 01°11' E 103°41'0 0.0
2018-Jun-20 02:29N 01°11' E 103°41'0 0.0
2018-Jun-20 01:57N 01°11' E 103°41'0 0.0
2018-Jun-20 01:30N 01°11' E 103°41'0 0.0
2018-Jun-20 00:57N 01°11' E 103°41'0 1.0
2018-Jun-20 00:30N 01°12' E 103°42'4 8.2
2018-Jun-20 00:00N 01°12' E 103°38'3 6.2
2018-Jun-19 23:30N 01°13' E 103°34'3 6.0
2018-Jun-19 23:00N 01°11' E 103°32'2 3.9
2018-Jun-19 22:30N 01°10' E 103°30'1 2.5
2018-Jun-19 22:00N 01°10' E 103°29'510.5
2018-Jun-19 21:29N 01°12' E 103°24'611.4
2018-Jun-19 20:59N 01°16' E 103°20'611.3
2018-Jun-19 20:30N 01°20' E 103°16'  
Track history (hours):
 
Tides and Currents Weather Stations Pressure Air Temp Water Temp Dewpoint Dewpoint Depression Visibility Wind Speed Wind Dir Waves Ship Positions

Bw Mia

Last reported at 2018-Jun-20 16:13 UTC. Time now 2018-Jun-23 06:17 UTC.
Position N 01°22' E 104°25'.

Length 144 m; draft 9.7 m.

Type: Tanker. MMSI: 235105196.

Date/timePositionNaut miles runAvg speedWind from/ knotsBaromVisibWave heightAir tempDewpointWater temp
2018-Jun-20 16:13N 01°22' E 104°25'412.0
2018-Jun-20 15:55N 01°19' E 104°22'711.6
2018-Jun-20 15:19N 01°17' E 104°16'512.0
2018-Jun-20 14:56N 01°16' E 104°11'612.1
2018-Jun-20 14:28N 01°15' E 104°06'511.7
2018-Jun-20 14:00N 01°14' E 104°00'611.0
2018-Jun-20 13:30N 01°13' E 103°55'5 9.8
2018-Jun-20 13:00N 01°11' E 103°51'5 9.9
2018-Jun-20 12:30N 01°08' E 103°46'5 9.4
2018-Jun-20 11:58N 01°05' E 103°43'510.2
2018-Jun-20 11:30N 01°03' E 103°39'611.2
2018-Jun-20 10:59N 01°06' E 103°34'4 7.8
2018-Jun-20 10:30N 01°10' E 103°34'5 9.9
2018-Jun-20 10:01N 01°11' E 103°39'3 5.3
2018-Jun-20 09:30N 01°11' E 103°41'0 0.0
2018-Jun-20 08:59N 01°11' E 103°41'0 0.0
2018-Jun-20 08:30N 01°11' E 103°41'0 0.0
2018-Jun-20 07:56N 01°11' E 103°41'0 0.1
2018-Jun-20 07:30N 01°11' E 103°41'0 0.0
2018-Jun-20 06:59N 01°11' E 103°41'0 0.0
2018-Jun-20 06:30N 01°11' E 103°41'0 0.0
2018-Jun-20 05:57N 01°11' E 103°41'0 0.0
2018-Jun-20 05:27N 01°11' E 103°41'0 0.0
2018-Jun-20 05:00N 01°11' E 103°41'0 0.0
2018-Jun-20 04:30N 01°11' E 103°41'0 0.0
2018-Jun-20 03:57N 01°11' E 103°41'0 0.0
2018-Jun-20 03:30N 01°11' E 103°41'0 0.0
2018-Jun-20 02:59N 01°11' E 103°41'0 0.0
2018-Jun-20 02:29N 01°11' E 103°41'0 0.0
2018-Jun-20 01:57N 01°11' E 103°41'0 0.0
2018-Jun-20 01:30N 01°11' E 103°41'0 0.0
2018-Jun-20 00:57N 01°11' E 103°41'0 1.0
2018-Jun-20 00:30N 01°12' E 103°42'4 8.2
2018-Jun-20 00:00N 01°12' E 103°38'3 6.2
2018-Jun-19 23:30N 01°13' E 103°34'3 6.0
2018-Jun-19 23:00N 01°11' E 103°32'2 3.9
2018-Jun-19 22:30N 01°10' E 103°30'1 2.5
2018-Jun-19 22:00N 01°10' E 103°29'510.5
2018-Jun-19 21:29N 01°12' E 103°24'611.4
2018-Jun-19 20:59N 01°16' E 103°20'611.3
2018-Jun-19 20:30N 01°20' E 103°16'  

Dump ship's entire track history